createdAt,value
2022-10-09T00:01:03.363Z,100980.94
2022-10-09T00:03:30.132Z,100961.88
2022-10-09T00:05:56.808Z,100942.72
2022-10-09T00:08:23.500Z,100925.31
2022-10-09T00:10:50.299Z,100909.44
2022-10-09T00:13:17.034Z,100950.34
2022-10-09T00:15:45.594Z,100889.44
2022-10-09T00:18:14.730Z,100935.84
2022-10-09T00:20:43.936Z,100946.88
2022-10-09T00:23:14.635Z,100926.78
2022-10-09T00:25:53.645Z,100939.44
2022-10-09T00:28:22.674Z,100931.72
2022-10-09T00:30:49.430Z,100896.31
2022-10-09T00:33:16.743Z,100861.38
2022-10-09T00:35:43.658Z,100898.16
2022-10-09T00:38:11.087Z,100928.22
2022-10-09T00:40:38.683Z,100888.19
2022-10-09T00:43:13.497Z,100887.66
2022-10-09T00:45:45.290Z,100933.91
2022-10-09T00:48:12.708Z,100838.97
2022-10-09T00:50:44.798Z,100913.50
2022-10-09T00:53:15.703Z,100899.03
2022-10-09T00:55:43.553Z,100902.03
2022-10-09T00:58:13.135Z,100909.66
2022-10-09T01:00:40.748Z,100897.31
2022-10-09T01:03:07.579Z,100879.00
2022-10-09T01:06:00.159Z,100848.50
2022-10-09T01:08:34.503Z,100820.28
2022-10-09T01:11:18.238Z,100824.94
2022-10-09T01:13:44.898Z,100848.69
2022-10-09T01:16:24.059Z,100802.81
2022-10-09T01:19:01.666Z,100841.91
2022-10-09T01:21:53.008Z,100821.78
2022-10-09T01:24:48.938Z,100845.66
2022-10-09T01:27:22.254Z,100812.50
2022-10-09T01:29:49.907Z,100848.25
2022-10-09T01:32:20.032Z,100816.41
2022-10-09T01:34:48.014Z,100782.63
2022-10-09T01:37:17.543Z,100798.47
2022-10-09T01:39:46.372Z,100815.13
2022-10-09T01:42:15.088Z,100807.91
2022-10-09T01:44:42.344Z,100795.97
2022-10-09T01:47:16.911Z,100832.22
2022-10-09T01:50:25.081Z,100800.09
2022-10-09T01:52:55.748Z,100805.28
2022-10-09T01:55:28.396Z,100812.34
2022-10-09T01:58:16.253Z,100797.19
2022-10-09T02:00:48.653Z,100744.72
2022-10-09T02:03:17.079Z,100792.47
2022-10-09T02:05:47.451Z,100733.31
2022-10-09T02:08:18.598Z,100748.53
2022-10-09T02:10:48.322Z,100747.06
2022-10-09T02:13:15.168Z,100695.97
2022-10-09T02:15:48.387Z,100738.16
2022-10-09T02:18:15.698Z,100743.34
2022-10-09T02:20:48.454Z,100725.69
2022-10-09T02:23:16.960Z,100736.63
2022-10-09T02:25:43.910Z,100708.97
2022-10-09T02:28:11.402Z,100707.72
2022-10-09T02:31:03.952Z,100718.19
2022-10-09T02:33:32.947Z,100701.91
2022-10-09T02:36:00.333Z,100683.41
2022-10-09T02:38:27.142Z,100664.47
2022-10-09T02:40:58.093Z,100683.63
2022-10-09T02:43:24.834Z,100667.56
2022-10-09T02:45:51.746Z,100648.66
2022-10-09T02:48:18.428Z,100662.69
2022-10-09T02:50:45.027Z,100658.44
2022-10-09T02:53:11.704Z,100643.78
2022-10-09T02:55:38.403Z,100637.41
2022-10-09T02:58:05.047Z,100664.25
2022-10-09T03:00:31.722Z,100605.13
2022-10-09T03:02:58.469Z,100640.81
2022-10-09T03:05:25.559Z,100647.78
2022-10-09T03:07:53.265Z,100605.25
2022-10-09T03:10:20.754Z,100604.41
2022-10-09T03:12:50.341Z,100636.50
2022-10-09T03:15:18.269Z,100623.66
2022-10-09T03:17:44.955Z,100656.16
2022-10-09T03:20:11.642Z,100664.22
2022-10-09T03:22:38.313Z,100604.94
2022-10-09T03:25:08.423Z,100623.28
2022-10-09T03:27:38.238Z,100666.78
2022-10-09T03:30:05.528Z,100646.78
2022-10-09T03:32:32.355Z,100620.06
2022-10-09T03:34:59.080Z,100625.41
2022-10-09T03:37:25.746Z,100596.25
2022-10-09T03:39:52.397Z,100614.16
2022-10-09T03:42:19.039Z,100615.94
2022-10-09T03:44:45.662Z,100630.00
2022-10-09T03:47:12.325Z,100624.47
2022-10-09T03:49:38.962Z,100616.06
2022-10-09T03:52:05.679Z,100582.72
2022-10-09T03:54:32.311Z,100579.44
2022-10-09T03:56:59.214Z,100573.97
2022-10-09T03:59:25.995Z,100583.44
2022-10-09T04:01:52.904Z,100577.03
2022-10-09T04:04:19.599Z,100598.47
2022-10-09T04:06:46.308Z,100548.16
2022-10-09T04:09:12.948Z,100528.19
2022-10-09T04:11:39.630Z,100569.22
2022-10-09T04:14:06.319Z,100562.28
2022-10-09T04:16:33.074Z,100528.56
2022-10-09T04:18:59.780Z,100564.88
2022-10-09T04:21:26.539Z,100553.56
2022-10-09T04:23:54.296Z,100581.63
2022-10-09T04:26:21.056Z,100567.63
2022-10-09T04:28:47.775Z,100568.78
2022-10-09T04:31:14.527Z,100555.69
2022-10-09T04:33:41.275Z,100572.44
2022-10-09T04:36:07.985Z,100571.06
2022-10-09T04:38:34.838Z,100550.94
2022-10-09T04:41:04.410Z,100559.09
2022-10-09T04:43:31.371Z,100555.47
2022-10-09T04:45:58.178Z,100568.91
2022-10-09T04:48:25.366Z,100541.38
2022-10-09T04:50:52.016Z,100568.59
2022-10-09T04:53:18.679Z,100541.84
2022-10-09T04:55:45.932Z,100554.38
2022-10-09T04:58:13.840Z,100549.44
2022-10-09T05:00:42.766Z,100536.56
2022-10-09T05:03:10.551Z,100565.84
2022-10-09T05:05:37.700Z,100538.75
2022-10-09T05:08:04.709Z,100522.91
2022-10-09T05:10:32.487Z,100484.88
2022-10-09T05:12:59.833Z,100477.28
2022-10-09T05:15:27.206Z,100513.19
2022-10-09T05:17:53.904Z,100514.97
2022-10-09T05:20:20.749Z,100480.84
2022-10-09T05:22:47.921Z,100457.69
2022-10-09T05:25:15.190Z,100500.34
2022-10-09T05:27:41.907Z,100464.75
2022-10-09T05:30:09.574Z,100458.47
2022-10-09T05:32:36.295Z,100449.25
2022-10-09T05:35:04.492Z,100475.03
2022-10-09T05:37:31.233Z,100471.91
2022-10-09T05:39:58.084Z,100470.94
2022-10-09T05:42:24.851Z,100457.38
2022-10-09T05:44:51.522Z,100456.75
2022-10-09T05:47:22.819Z,100440.03
2022-10-09T05:49:49.471Z,100403.31
2022-10-09T05:52:16.148Z,100450.00
2022-10-09T05:54:42.784Z,100432.63
2022-10-09T05:57:09.944Z,100470.53
2022-10-09T05:59:36.664Z,100418.25
2022-10-09T06:02:03.775Z,100438.16
2022-10-09T06:04:31.150Z,100435.91
2022-10-09T06:06:57.855Z,100470.75
2022-10-09T06:09:25.675Z,100464.56
2022-10-09T06:11:54.281Z,100460.56
2022-10-09T06:14:25.251Z,100427.00
2022-10-09T06:16:52.208Z,100459.53
2022-10-09T06:19:20.149Z,100454.59
2022-10-09T06:21:47.947Z,100409.81
2022-10-09T06:24:25.852Z,100416.00
2022-10-09T06:26:54.769Z,100380.19
2022-10-09T06:29:21.856Z,100423.69
2022-10-09T06:31:48.626Z,100431.69
2022-10-09T06:34:15.362Z,100423.66
2022-10-09T06:36:42.081Z,100399.47
2022-10-09T06:39:10.416Z,100431.22
2022-10-09T06:41:37.230Z,100400.78
2022-10-09T06:44:10.806Z,100362.50
2022-10-09T06:46:41.815Z,100355.22
2022-10-09T06:49:10.177Z,100413.59
2022-10-09T06:51:37.178Z,100376.34
2022-10-09T06:54:10.562Z,100421.88
2022-10-09T06:56:37.283Z,100375.63
2022-10-09T06:59:05.420Z,100406.41
2022-10-09T07:01:33.815Z,100334.00
2022-10-09T07:04:13.391Z,100404.94
2022-10-09T07:06:42.220Z,100359.41
2022-10-09T07:09:13.348Z,100378.78
2022-10-09T07:11:43.507Z,100356.94
2022-10-09T07:14:11.674Z,100357.00
2022-10-09T07:16:41.195Z,100336.94
2022-10-09T07:19:11.250Z,100352.22
2022-10-09T07:21:39.970Z,100285.53
2022-10-09T07:24:07.741Z,100353.13
2022-10-09T07:26:37.060Z,100362.97
2022-10-09T07:29:06.016Z,100345.19
2022-10-09T07:31:32.812Z,100334.53
2022-10-09T07:33:59.648Z,100267.66
2022-10-09T07:36:26.922Z,100296.00
2022-10-09T07:38:56.183Z,100265.03
2022-10-09T07:41:26.833Z,100299.78
2022-10-09T07:43:53.859Z,100261.25
2022-10-09T07:46:22.725Z,100227.44
2022-10-09T07:48:50.121Z,100288.66
2022-10-09T07:51:29.088Z,100252.09
2022-10-09T07:53:57.490Z,100296.47
2022-10-09T07:56:32.573Z,100279.66
2022-10-09T07:59:01.919Z,100321.09
2022-10-09T08:01:30.314Z,100259.03
2022-10-09T08:03:58.188Z,100280.06
2022-10-09T08:06:24.932Z,100297.13
2022-10-09T08:08:53.259Z,100264.50
2022-10-09T08:11:21.963Z,100307.72
2022-10-09T08:13:50.356Z,100263.78
2022-10-09T08:16:18.604Z,100309.41
2022-10-09T08:18:45.650Z,100279.38
2022-10-09T08:21:15.447Z,100296.47
2022-10-09T08:23:42.659Z,100271.84
2022-10-09T08:26:17.828Z,100244.13
2022-10-09T08:28:49.393Z,100284.34
2022-10-09T08:31:17.355Z,100307.69
2022-10-09T08:33:44.675Z,100280.88
2022-10-09T08:36:15.323Z,100251.03
2022-10-09T08:38:47.916Z,100234.25
2022-10-09T08:41:27.140Z,100304.63
2022-10-09T08:44:04.867Z,100264.59
2022-10-09T08:46:34.576Z,100305.34
2022-10-09T08:49:04.669Z,100272.09
2022-10-09T08:51:38.267Z,100255.50
2022-10-09T08:54:04.913Z,100292.47
2022-10-09T08:56:34.314Z,100274.06
2022-10-09T08:59:02.558Z,100230.31
2022-10-09T09:01:45.166Z,100277.78
2022-10-09T09:04:36.856Z,100274.31
2022-10-09T09:07:19.775Z,100265.25
2022-10-09T09:10:00.137Z,100221.63
2022-10-09T09:12:52.876Z,100274.69
2022-10-09T09:15:44.870Z,100217.19
2022-10-09T09:18:42.562Z,100271.59
2022-10-09T09:21:18.237Z,100236.50
2022-10-09T09:23:47.796Z,100228.25
2022-10-09T09:26:21.511Z,100243.41
2022-10-09T09:28:53.320Z,100208.78
2022-10-09T09:31:25.636Z,100234.94
2022-10-09T09:34:14.462Z,100224.72
2022-10-09T09:37:03.081Z,100183.69
2022-10-09T09:42:21.341Z,100208.53
2022-10-09T09:44:57.919Z,100229.69
2022-10-09T09:47:40.525Z,100176.91
2022-10-09T09:50:18.462Z,100197.06
2022-10-09T11:09:50.266Z,100026.75
2022-10-09T11:12:47.930Z,100034.34
2022-10-09T11:15:16.993Z,99963.84
2022-10-09T11:18:08.111Z,99972.75
2022-10-09T11:20:53.021Z,99992.69
2022-10-09T11:23:37.925Z,99943.56
2022-10-09T11:26:11.821Z,99940.09
2022-10-09T11:28:48.744Z,99932.28
2022-10-09T11:31:30.371Z,99929.44
2022-10-09T11:34:09.758Z,99968.00
2022-10-09T11:36:43.195Z,100014.28
2022-10-09T11:39:18.957Z,99949.91
2022-10-09T11:41:48.213Z,100000.38
2022-10-09T11:44:14.935Z,100001.63
2022-10-09T11:46:44.398Z,100023.53
2022-10-09T11:49:35.181Z,100014.94
2022-10-09T11:52:35.571Z,100011.94
2022-10-09T11:55:17.617Z,100004.25
2022-10-09T11:57:44.453Z,100011.06
2022-10-09T12:00:11.668Z,100015.22
2022-10-09T12:02:38.988Z,100005.00
2022-10-09T12:05:32.812Z,99976.75
2022-10-09T12:08:12.023Z,99991.44
2022-10-09T12:10:57.252Z,99990.97
2022-10-09T12:13:41.293Z,99924.75
2022-10-09T12:16:28.323Z,99939.47
2022-10-09T12:18:57.191Z,99957.84
2022-10-09T12:21:28.006Z,99986.44
2022-10-09T12:23:55.293Z,99936.75
2022-10-09T12:26:25.142Z,99895.59
2022-10-09T12:28:56.597Z,99952.97
2022-10-09T12:31:37.093Z,99968.72
2022-10-09T12:34:23.426Z,99915.88
2022-10-09T12:36:50.189Z,99889.00
2022-10-09T12:39:20.046Z,99890.50
2022-10-09T12:41:49.041Z,99896.84
2022-10-09T12:44:34.076Z,99890.41
2022-10-09T12:47:05.397Z,99855.91
2022-10-09T12:49:32.208Z,99861.72
2022-10-09T12:52:00.416Z,99890.59
2022-10-09T12:54:30.548Z,99869.16
2022-10-09T12:56:59.098Z,99873.63
2022-10-09T12:59:27.552Z,99844.06
2022-10-09T13:01:59.152Z,99876.41
2022-10-09T13:04:33.625Z,99891.56
2022-10-09T13:07:06.677Z,99885.88
2022-10-09T13:09:38.794Z,99862.06
2022-10-09T13:12:09.774Z,99873.03
2022-10-09T13:14:53.374Z,99910.75
2022-10-09T13:17:41.588Z,99887.38
2022-10-09T13:20:17.395Z,99898.13
2022-10-09T13:23:02.120Z,99882.59
2022-10-09T13:25:41.266Z,99865.06
2022-10-09T13:28:08.183Z,99822.41
2022-10-09T13:30:35.069Z,99842.53
2022-10-09T13:33:01.839Z,99883.78
2022-10-09T13:35:28.522Z,99849.59
2022-10-09T13:37:55.305Z,99854.44
2022-10-09T13:40:22.431Z,99849.25
2022-10-09T13:43:02.659Z,99808.13
2022-10-09T13:45:29.337Z,99820.84
2022-10-09T13:47:56.204Z,99807.78
2022-10-09T13:50:23.119Z,99810.94
2022-10-09T13:52:50.298Z,99797.44
2022-10-09T13:55:17.314Z,99816.94
2022-10-09T13:57:44.222Z,99845.25
2022-10-09T14:00:11.529Z,99799.06
2022-10-09T14:02:38.446Z,99781.59
2022-10-09T14:05:05.523Z,99801.94
2022-10-09T14:07:32.232Z,99796.13
2022-10-09T14:09:59.220Z,99768.97
2022-10-09T14:12:26.196Z,99774.34
2022-10-09T14:14:54.467Z,99742.63
2022-10-09T14:17:25.198Z,99737.59
2022-10-09T14:19:52.931Z,99738.13
2022-10-09T14:22:19.727Z,99749.16
2022-10-09T14:24:46.510Z,99725.16
2022-10-09T14:27:13.199Z,99716.75
2022-10-09T14:29:39.875Z,99718.69
2022-10-09T14:32:06.749Z,99758.94
2022-10-09T14:34:33.419Z,99744.13
2022-10-09T14:37:00.172Z,99750.84
2022-10-09T14:39:26.852Z,99750.53
2022-10-09T14:41:53.554Z,99725.66
2022-10-09T14:44:20.203Z,99731.91
2022-10-09T14:46:46.931Z,99731.25
2022-10-09T14:49:13.663Z,99695.97
2022-10-09T14:51:41.735Z,99691.56
2022-10-09T14:54:09.553Z,99769.66
2022-10-09T14:56:36.656Z,99726.56
2022-10-09T14:59:05.965Z,99691.84
2022-10-09T15:01:33.210Z,99741.09
2022-10-09T15:04:00.691Z,99725.47
2022-10-09T15:06:28.274Z,99721.47
2022-10-09T15:09:03.169Z,99685.94
2022-10-09T15:11:33.592Z,99697.34
2022-10-09T15:14:00.419Z,99691.28
2022-10-09T15:16:32.722Z,99692.38
2022-10-09T15:18:59.720Z,99693.72
2022-10-09T15:21:32.615Z,99738.53
2022-10-09T15:24:01.408Z,99650.06
2022-10-09T15:26:30.429Z,99655.84
2022-10-09T15:28:59.114Z,99673.75
2022-10-09T15:31:34.575Z,99578.69
2022-10-09T15:34:02.528Z,99680.03
2022-10-09T15:36:31.069Z,99617.94
2022-10-09T15:38:57.855Z,99656.09
2022-10-09T15:41:30.925Z,99664.94
2022-10-09T15:44:01.795Z,99633.88
2022-10-09T15:46:29.649Z,99622.72
2022-10-09T15:48:56.526Z,99617.47
2022-10-09T15:51:24.329Z,99598.41
2022-10-09T15:53:52.738Z,99646.31
2022-10-09T15:56:22.500Z,99610.19
2022-10-09T15:58:50.204Z,99624.53
2022-10-09T16:01:18.450Z,99560.66
2022-10-09T16:03:45.715Z,99588.94
2022-10-09T16:06:15.061Z,99617.81
2022-10-09T16:08:44.321Z,99554.47
2022-10-09T16:11:18.994Z,99613.47
2022-10-09T16:13:48.745Z,99576.53
2022-10-09T16:16:23.545Z,99579.81
2022-10-09T16:18:50.761Z,99585.25
2022-10-09T16:21:26.632Z,99564.75
2022-10-09T16:23:58.367Z,99545.50
2022-10-09T16:26:26.335Z,99543.59
2022-10-09T16:28:53.177Z,99519.09
2022-10-09T16:31:26.179Z,99541.00
2022-10-09T16:33:53.462Z,99530.69
2022-10-09T16:36:20.404Z,99547.41
2022-10-09T16:38:47.547Z,99578.25
2022-10-09T16:41:20.311Z,99529.31
2022-10-09T16:43:48.864Z,99521.59
2022-10-09T16:46:21.202Z,99525.81
2022-10-09T16:48:49.079Z,99534.06
2022-10-09T16:51:21.322Z,99542.25
2022-10-09T16:53:56.176Z,99509.66
2022-10-09T16:56:26.525Z,99461.66
2022-10-09T16:59:00.150Z,99481.47
2022-10-09T17:01:28.323Z,99521.81
2022-10-09T17:03:56.866Z,99498.94
2022-10-09T17:06:24.288Z,99539.00
2022-10-09T17:08:52.153Z,99516.91
2022-10-09T17:11:19.925Z,99535.81
2022-10-09T17:13:47.444Z,99518.06
2022-10-09T17:16:18.832Z,99501.75
2022-10-09T17:18:47.494Z,99529.00
2022-10-09T17:21:15.243Z,99475.38
2022-10-09T17:23:42.200Z,99503.78
2022-10-09T17:26:11.948Z,99507.66
2022-10-09T17:28:40.394Z,99531.63
2022-10-09T17:31:10.115Z,99558.34
2022-10-09T17:33:41.304Z,99527.00
2022-10-09T17:36:09.171Z,99471.59
2022-10-09T17:38:36.908Z,99520.75
2022-10-09T17:41:08.092Z,99517.19
2022-10-09T17:43:34.834Z,99533.72
2022-10-09T17:46:01.761Z,99544.63
2022-10-09T17:48:29.809Z,99496.47
2022-10-09T17:51:00.453Z,99530.66
2022-10-09T17:53:27.333Z,99511.31
2022-10-09T17:55:56.390Z,99463.78
2022-10-09T17:58:24.412Z,99519.31
2022-10-09T18:00:51.217Z,99517.50
2022-10-09T18:03:18.685Z,99518.16
2022-10-09T18:05:48.557Z,99505.66
2022-10-09T18:08:35.148Z,99494.06
2022-10-09T18:11:05.807Z,99481.66
2022-10-09T18:13:32.736Z,99466.75
2022-10-09T18:15:59.607Z,99458.53
2022-10-09T18:18:38.638Z,99507.63
2022-10-09T18:21:10.648Z,99382.25
2022-10-09T18:23:38.253Z,99512.53
2022-10-09T18:26:15.075Z,99483.78
2022-10-09T18:28:43.615Z,99458.63
2022-10-09T18:31:25.943Z,99463.81
2022-10-09T18:33:57.115Z,99458.44
2022-10-09T18:36:25.733Z,99457.75
2022-10-09T18:38:54.690Z,99452.56
2022-10-09T18:41:23.124Z,99443.50
2022-10-09T18:43:55.468Z,99461.91
2022-10-09T18:46:26.345Z,99476.03
2022-10-09T18:48:58.100Z,99444.22
2022-10-09T18:51:30.643Z,99411.63
2022-10-09T18:54:01.864Z,99401.00
2022-10-09T18:56:33.215Z,99451.59
2022-10-09T18:59:10.761Z,99436.66
2022-10-09T19:01:37.520Z,99422.31
2022-10-09T19:04:04.738Z,99371.78
2022-10-09T19:06:31.676Z,99434.72
2022-10-09T19:09:00.942Z,99447.28
2022-10-09T19:11:32.812Z,99443.09
2022-10-09T19:14:00.866Z,99412.06
2022-10-09T19:16:33.374Z,99364.69
2022-10-09T19:19:00.256Z,99425.59
2022-10-09T19:21:27.139Z,99445.59
2022-10-09T19:23:54.635Z,99426.06
2022-10-09T19:26:22.552Z,99415.09
2022-10-09T19:28:49.455Z,99401.25
2022-10-09T19:31:16.138Z,99452.34
2022-10-09T19:33:43.597Z,99478.09
2022-10-09T19:36:12.522Z,99460.72
2022-10-09T19:38:39.413Z,99461.13
2022-10-09T19:41:14.879Z,99471.25
2022-10-09T19:43:42.306Z,99354.66
2022-10-09T19:46:17.311Z,99378.84
2022-10-09T19:48:46.487Z,99430.31
2022-10-09T19:51:16.799Z,99457.53
2022-10-09T19:53:45.512Z,99410.19
2022-10-09T19:56:23.428Z,99393.22
2022-10-09T19:58:50.468Z,99437.28
2022-10-09T20:01:19.694Z,99385.75
2022-10-09T20:03:47.222Z,99379.56
2022-10-09T20:06:15.259Z,99446.50
2022-10-09T20:08:52.087Z,99459.25
2022-10-09T20:11:20.732Z,99524.38
2022-10-09T20:13:53.389Z,99559.44
2022-10-09T20:16:25.884Z,99557.91
2022-10-09T20:18:54.461Z,99534.53
2022-10-09T20:21:21.278Z,99558.22
2022-10-09T20:23:47.956Z,99538.13
2022-10-09T20:26:18.029Z,99540.06
2022-10-09T20:28:45.554Z,99559.44
2022-10-09T20:31:16.502Z,99577.50
2022-10-09T20:33:43.852Z,99576.44
2022-10-09T20:36:40.083Z,99599.84
2022-10-09T20:39:11.408Z,99533.47
2022-10-09T20:41:39.254Z,99595.56
2022-10-09T20:44:06.652Z,99622.53
2022-10-09T20:46:36.374Z,99590.88
2022-10-09T20:49:08.371Z,99611.38
2022-10-09T20:51:36.166Z,99602.03
2022-10-09T20:54:03.233Z,99551.81
2022-10-09T20:56:32.729Z,99625.31
2022-10-09T20:59:00.646Z,99615.94
2022-10-09T21:01:30.253Z,99611.41
2022-10-09T21:03:59.192Z,99591.88
2022-10-09T21:06:26.334Z,99597.22
2022-10-09T21:08:53.131Z,99582.06
2022-10-09T21:11:20.173Z,99613.25
2022-10-09T21:13:48.165Z,99628.94
2022-10-09T21:16:18.404Z,99624.97
2022-10-09T21:18:45.026Z,99627.34
2022-10-09T21:21:17.472Z,99635.16
2022-10-09T21:23:45.069Z,99628.28
2022-10-09T21:26:16.685Z,99628.22
2022-10-09T21:28:44.487Z,99604.78
2022-10-09T21:31:13.533Z,99639.72
2022-10-09T21:33:40.193Z,99599.94
2022-10-09T21:36:13.062Z,99622.09
2022-10-09T21:38:39.787Z,99605.59
2022-10-09T21:41:06.446Z,99640.34
2022-10-09T21:43:33.147Z,99615.00
2022-10-09T21:45:59.925Z,99639.84
2022-10-09T21:48:26.570Z,99607.72
2022-10-09T21:50:53.208Z,99623.22
2022-10-09T21:53:19.842Z,99612.88
2022-10-09T21:55:46.471Z,99632.22
2022-10-09T21:58:13.155Z,99635.59
2022-10-09T22:00:39.855Z,99666.41
2022-10-09T22:03:06.554Z,99650.78
2022-10-09T22:05:33.224Z,99622.69
2022-10-09T22:07:59.971Z,99648.94
2022-10-09T22:10:26.624Z,99604.72
2022-10-09T22:13:01.858Z,99643.16
2022-10-09T22:15:28.542Z,99637.72
2022-10-09T22:17:55.173Z,99634.84
2022-10-09T22:20:21.786Z,99625.25
2022-10-09T22:22:48.735Z,99665.91
2022-10-09T22:25:15.650Z,99623.25
2022-10-09T22:27:42.416Z,99646.38
2022-10-09T22:30:09.847Z,99663.34
2022-10-09T22:32:36.538Z,99631.78
2022-10-09T22:35:03.258Z,99675.75
2022-10-09T22:37:29.927Z,99644.78
2022-10-09T22:39:56.596Z,99683.06
2022-10-09T22:42:23.289Z,99702.97
2022-10-09T22:44:50.007Z,99675.94
2022-10-09T22:47:16.655Z,99661.91
2022-10-09T22:49:43.383Z,99687.16
2022-10-09T22:52:10.021Z,99656.41
2022-10-09T22:54:36.683Z,99689.53
2022-10-09T22:57:03.355Z,99691.41
2022-10-09T22:59:30.073Z,99647.22
2022-10-09T23:01:57.739Z,99661.03
2022-10-09T23:04:24.669Z,99687.88
2022-10-09T23:06:54.035Z,99680.34
2022-10-09T23:09:23.086Z,99696.03
2022-10-09T23:11:49.977Z,99701.25
2022-10-09T23:14:16.965Z,99698.94
2022-10-09T23:16:43.915Z,99726.16
2022-10-09T23:19:10.870Z,99730.31
2022-10-09T23:21:40.846Z,99698.94
2022-10-09T23:24:08.767Z,99752.59
2022-10-09T23:26:36.739Z,99719.72
2022-10-09T23:29:07.345Z,99730.84
2022-10-09T23:31:34.991Z,99752.38
2022-10-09T23:34:03.697Z,99718.53
2022-10-09T23:36:30.585Z,99755.41
2022-10-09T23:38:57.988Z,99782.59
2022-10-09T23:41:26.802Z,99784.81
2022-10-09T23:43:54.633Z,99787.69
2022-10-09T23:46:26.904Z,99784.13
2022-10-09T23:48:54.437Z,99792.84
2022-10-09T23:51:22.792Z,99797.09
2022-10-09T23:53:49.879Z,99787.28
2022-10-09T23:56:48.263Z,99801.06
2022-10-09T23:59:14.887Z,99793.81
